sensor_id;sensor_type;location;lat;lon;timestamp;P1;durP1;ratioP1;P2;durP2;ratioP2
13321;SDS011;6730;46.248;6.930;2022-12-18T00:01:45;1.30;;;1.20;;
13321;SDS011;6730;46.248;6.930;2022-12-18T00:04:15;1.23;;;0.80;;
13321;SDS011;6730;46.248;6.930;2022-12-18T00:06:51;1.90;;;1.40;;
13321;SDS011;6730;46.248;6.930;2022-12-18T00:09:17;1.60;;;1.10;;
13321;SDS011;6730;46.248;6.930;2022-12-18T00:11:44;1.80;;;1.30;;
13321;SDS011;6730;46.248;6.930;2022-12-18T00:14:11;1.97;;;1.30;;
13321;SDS011;6730;46.248;6.930;2022-12-18T00:16:42;2.90;;;1.20;;
13321;SDS011;6730;46.248;6.930;2022-12-18T00:19:09;1.57;;;1.00;;
13321;SDS011;6730;46.248;6.930;2022-12-18T00:21:35;1.20;;;0.97;;
13321;SDS011;6730;46.248;6.930;2022-12-18T00:24:04;1.80;;;1.10;;
13321;SDS011;6730;46.248;6.930;2022-12-18T00:26:31;1.93;;;1.20;;
13321;SDS011;6730;46.248;6.930;2022-12-18T00:29:00;1.90;;;1.40;;
13321;SDS011;6730;46.248;6.930;2022-12-18T00:31:33;2.57;;;1.37;;
13321;SDS011;6730;46.248;6.930;2022-12-18T00:33:59;1.43;;;1.20;;
13321;SDS011;6730;46.248;6.930;2022-12-18T00:36:26;1.83;;;1.33;;
13321;SDS011;6730;46.248;6.930;2022-12-18T00:38:54;0.83;;;0.80;;
13321;SDS011;6730;46.248;6.930;2022-12-18T00:41:21;1.63;;;1.20;;
13321;SDS011;6730;46.248;6.930;2022-12-18T00:44:06;1.00;;;0.90;;
13321;SDS011;6730;46.248;6.930;2022-12-18T00:46:34;1.43;;;0.90;;
13321;SDS011;6730;46.248;6.930;2022-12-18T00:49:00;1.70;;;1.27;;
13321;SDS011;6730;46.248;6.930;2022-12-18T00:51:25;1.50;;;1.10;;
13321;SDS011;6730;46.248;6.930;2022-12-18T00:53:51;1.10;;;1.00;;
13321;SDS011;6730;46.248;6.930;2022-12-18T00:56:17;0.80;;;0.77;;
13321;SDS011;6730;46.248;6.930;2022-12-18T00:58:46;1.37;;;0.97;;
13321;SDS011;6730;46.248;6.930;2022-12-18T01:01:13;1.30;;;1.10;;
13321;SDS011;6730;46.248;6.930;2022-12-18T01:03:39;1.23;;;0.97;;
13321;SDS011;6730;46.248;6.930;2022-12-18T01:06:08;1.50;;;1.10;;
13321;SDS011;6730;46.248;6.930;2022-12-18T01:08:35;1.40;;;1.20;;
13321;SDS011;6730;46.248;6.930;2022-12-18T01:11:06;1.43;;;1.20;;
13321;SDS011;6730;46.248;6.930;2022-12-18T01:13:38;1.43;;;1.13;;
13321;SDS011;6730;46.248;6.930;2022-12-18T01:16:04;2.10;;;0.93;;
13321;SDS011;6730;46.248;6.930;2022-12-18T01:18:30;1.60;;;1.40;;
13321;SDS011;6730;46.248;6.930;2022-12-18T01:20:56;1.77;;;1.10;;
13321;SDS011;6730;46.248;6.930;2022-12-18T01:23:21;2.27;;;0.90;;
13321;SDS011;6730;46.248;6.930;2022-12-18T01:25:47;1.60;;;1.03;;
13321;SDS011;6730;46.248;6.930;2022-12-18T01:28:13;2.17;;;1.00;;
13321;SDS011;6730;46.248;6.930;2022-12-18T01:30:38;1.87;;;1.00;;
13321;SDS011;6730;46.248;6.930;2022-12-18T01:33:04;1.00;;;0.90;;
13321;SDS011;6730;46.248;6.930;2022-12-18T01:35:30;1.47;;;1.00;;
13321;SDS011;6730;46.248;6.930;2022-12-18T01:37:56;1.87;;;1.00;;
13321;SDS011;6730;46.248;6.930;2022-12-18T01:40:22;1.50;;;1.20;;
13321;SDS011;6730;46.248;6.930;2022-12-18T01:42:51;2.13;;;1.10;;
13321;SDS011;6730;46.248;6.930;2022-12-18T01:47:50;1.30;;;1.20;;
13321;SDS011;6730;46.248;6.930;2022-12-18T01:50:51;2.00;;;1.30;;
13321;SDS011;6730;46.248;6.930;2022-12-18T01:53:14;1.30;;;1.10;;
13321;SDS011;6730;46.248;6.930;2022-12-18T01:55:52;1.50;;;1.20;;
13321;SDS011;6730;46.248;6.930;2022-12-18T01:58:23;2.30;;;1.67;;
13321;SDS011;6730;46.248;6.930;2022-12-18T02:00:57;1.43;;;1.10;;
13321;SDS011;6730;46.248;6.930;2022-12-18T02:03:22;1.67;;;1.20;;
13321;SDS011;6730;46.248;6.930;2022-12-18T02:13:54;1.60;;;1.00;;
13321;SDS011;6730;46.248;6.930;2022-12-18T02:25:05;1.60;;;1.17;;
13321;SDS011;6730;46.248;6.930;2022-12-18T02:27:58;0.90;;;0.77;;
13321;SDS011;6730;46.248;6.930;2022-12-18T02:30:27;2.43;;;1.30;;
13321;SDS011;6730;46.248;6.930;2022-12-18T02:32:56;0.80;;;0.80;;
13321;SDS011;6730;46.248;6.930;2022-12-18T02:35:24;1.53;;;1.17;;
13321;SDS011;6730;46.248;6.930;2022-12-18T02:37:52;2.00;;;1.40;;
13321;SDS011;6730;46.248;6.930;2022-12-18T02:40:19;2.40;;;1.27;;
13321;SDS011;6730;46.248;6.930;2022-12-18T02:42:45;1.07;;;0.97;;
13321;SDS011;6730;46.248;6.930;2022-12-18T02:45:11;2.43;;;1.40;;
13321;SDS011;6730;46.248;6.930;2022-12-18T02:47:38;1.27;;;1.10;;
13321;SDS011;6730;46.248;6.930;2022-12-18T02:52:45;1.67;;;1.33;;
13321;SDS011;6730;46.248;6.930;2022-12-18T02:55:28;1.17;;;1.00;;
13321;SDS011;6730;46.248;6.930;2022-12-18T02:58:20;1.60;;;1.10;;
13321;SDS011;6730;46.248;6.930;2022-12-18T03:01:10;1.40;;;1.20;;
13321;SDS011;6730;46.248;6.930;2022-12-18T03:03:41;1.60;;;1.00;;
13321;SDS011;6730;46.248;6.930;2022-12-18T03:06:13;0.70;;;0.70;;
13321;SDS011;6730;46.248;6.930;2022-12-18T03:08:41;1.90;;;0.80;;
13321;SDS011;6730;46.248;6.930;2022-12-18T03:11:10;1.70;;;1.10;;
13321;SDS011;6730;46.248;6.930;2022-12-18T03:13:44;1.77;;;1.10;;
13321;SDS011;6730;46.248;6.930;2022-12-18T03:16:22;2.80;;;0.80;;
13321;SDS011;6730;46.248;6.930;2022-12-18T03:18:57;0.97;;;0.83;;
13321;SDS011;6730;46.248;6.930;2022-12-18T03:21:28;1.33;;;0.90;;
13321;SDS011;6730;46.248;6.930;2022-12-18T03:23:58;0.93;;;0.83;;
13321;SDS011;6730;46.248;6.930;2022-12-18T03:26:26;1.20;;;0.90;;
13321;SDS011;6730;46.248;6.930;2022-12-18T03:28:56;1.10;;;0.90;;
13321;SDS011;6730;46.248;6.930;2022-12-18T03:31:29;1.27;;;0.90;;
13321;SDS011;6730;46.248;6.930;2022-12-18T03:34:12;1.27;;;1.17;;
13321;SDS011;6730;46.248;6.930;2022-12-18T03:36:46;1.13;;;0.97;;
13321;SDS011;6730;46.248;6.930;2022-12-18T03:39:12;2.07;;;0.80;;
13321;SDS011;6730;46.248;6.930;2022-12-18T03:41:45;1.20;;;1.07;;
13321;SDS011;6730;46.248;6.930;2022-12-18T03:49:35;1.17;;;0.67;;
13321;SDS011;6730;46.248;6.930;2022-12-18T03:52:20;1.50;;;0.90;;
13321;SDS011;6730;46.248;6.930;2022-12-18T03:54:55;1.03;;;0.93;;
13321;SDS011;6730;46.248;6.930;2022-12-18T03:57:24;1.63;;;1.00;;
13321;SDS011;6730;46.248;6.930;2022-12-18T03:59:54;1.57;;;0.80;;
13321;SDS011;6730;46.248;6.930;2022-12-18T04:02:48;1.37;;;0.90;;
13321;SDS011;6730;46.248;6.930;2022-12-18T04:05:18;0.83;;;0.60;;
13321;SDS011;6730;46.248;6.930;2022-12-18T04:07:46;0.90;;;0.67;;
13321;SDS011;6730;46.248;6.930;2022-12-18T04:10:13;0.83;;;0.83;;
13321;SDS011;6730;46.248;6.930;2022-12-18T04:12:40;0.70;;;0.70;;
13321;SDS011;6730;46.248;6.930;2022-12-18T04:15:06;0.77;;;0.60;;
13321;SDS011;6730;46.248;6.930;2022-12-18T04:17:33;1.30;;;0.67;;
13321;SDS011;6730;46.248;6.930;2022-12-18T04:19:58;1.93;;;1.00;;
13321;SDS011;6730;46.248;6.930;2022-12-18T04:22:24;1.00;;;0.90;;
13321;SDS011;6730;46.248;6.930;2022-12-18T04:24:50;1.50;;;0.93;;
13321;SDS011;6730;46.248;6.930;2022-12-18T04:27:15;0.70;;;0.70;;
13321;SDS011;6730;46.248;6.930;2022-12-18T04:29:41;0.90;;;0.60;;
13321;SDS011;6730;46.248;6.930;2022-12-18T04:32:07;0.90;;;0.70;;
13321;SDS011;6730;46.248;6.930;2022-12-18T04:34:33;1.10;;;0.83;;
13321;SDS011;6730;46.248;6.930;2022-12-18T04:36:58;1.40;;;0.87;;
13321;SDS011;6730;46.248;6.930;2022-12-18T04:39:24;0.80;;;0.80;;
13321;SDS011;6730;46.248;6.930;2022-12-18T04:41:50;1.00;;;0.80;;
13321;SDS011;6730;46.248;6.930;2022-12-18T04:44:15;0.60;;;0.60;;
13321;SDS011;6730;46.248;6.930;2022-12-18T04:46:41;0.93;;;0.73;;
13321;SDS011;6730;46.248;6.930;2022-12-18T04:49:07;0.93;;;0.80;;
13321;SDS011;6730;46.248;6.930;2022-12-18T04:51:32;0.70;;;0.60;;
13321;SDS011;6730;46.248;6.930;2022-12-18T04:53:58;0.73;;;0.70;;
13321;SDS011;6730;46.248;6.930;2022-12-18T04:56:24;0.80;;;0.60;;
13321;SDS011;6730;46.248;6.930;2022-12-18T04:58:49;0.63;;;0.60;;
13321;SDS011;6730;46.248;6.930;2022-12-18T05:01:15;1.17;;;0.83;;
13321;SDS011;6730;46.248;6.930;2022-12-18T05:03:43;0.57;;;0.57;;
13321;SDS011;6730;46.248;6.930;2022-12-18T05:06:08;1.47;;;0.90;;
13321;SDS011;6730;46.248;6.930;2022-12-18T05:08:34;1.57;;;0.47;;
13321;SDS011;6730;46.248;6.930;2022-12-18T05:11:02;1.30;;;0.70;;
13321;SDS011;6730;46.248;6.930;2022-12-18T05:13:30;0.97;;;0.80;;
13321;SDS011;6730;46.248;6.930;2022-12-18T05:15:56;1.10;;;0.93;;
13321;SDS011;6730;46.248;6.930;2022-12-18T05:18:22;0.90;;;0.70;;
13321;SDS011;6730;46.248;6.930;2022-12-18T05:20:49;0.70;;;0.70;;
13321;SDS011;6730;46.248;6.930;2022-12-18T05:23:19;1.17;;;1.00;;
13321;SDS011;6730;46.248;6.930;2022-12-18T05:25:47;1.00;;;0.70;;
13321;SDS011;6730;46.248;6.930;2022-12-18T05:28:16;0.80;;;0.77;;
13321;SDS011;6730;46.248;6.930;2022-12-18T05:30:47;1.23;;;0.80;;
13321;SDS011;6730;46.248;6.930;2022-12-18T05:33:19;0.87;;;0.53;;
13321;SDS011;6730;46.248;6.930;2022-12-18T05:35:53;0.60;;;0.60;;
13321;SDS011;6730;46.248;6.930;2022-12-18T05:38:21;1.07;;;0.60;;
13321;SDS011;6730;46.248;6.930;2022-12-18T05:40:54;0.70;;;0.63;;
13321;SDS011;6730;46.248;6.930;2022-12-18T05:43:20;0.67;;;0.53;;
13321;SDS011;6730;46.248;6.930;2022-12-18T05:45:49;0.60;;;0.60;;
13321;SDS011;6730;46.248;6.930;2022-12-18T05:48:19;1.27;;;0.73;;
13321;SDS011;6730;46.248;6.930;2022-12-18T05:50:46;0.87;;;0.60;;
13321;SDS011;6730;46.248;6.930;2022-12-18T05:53:13;0.63;;;0.50;;
13321;SDS011;6730;46.248;6.930;2022-12-18T05:55:40;0.83;;;0.70;;
13321;SDS011;6730;46.248;6.930;2022-12-18T05:58:08;0.60;;;0.60;;
13321;SDS011;6730;46.248;6.930;2022-12-18T06:00:36;0.80;;;0.80;;
13321;SDS011;6730;46.248;6.930;2022-12-18T06:03:09;0.77;;;0.77;;
13321;SDS011;6730;46.248;6.930;2022-12-18T06:05:36;0.67;;;0.57;;
13321;SDS011;6730;46.248;6.930;2022-12-18T06:08:06;0.53;;;0.43;;
13321;SDS011;6730;46.248;6.930;2022-12-18T06:10:32;0.70;;;0.70;;
13321;SDS011;6730;46.248;6.930;2022-12-18T06:12:58;1.60;;;0.90;;
13321;SDS011;6730;46.248;6.930;2022-12-18T06:15:24;1.37;;;0.90;;
13321;SDS011;6730;46.248;6.930;2022-12-18T06:17:50;0.70;;;0.60;;
13321;SDS011;6730;46.248;6.930;2022-12-18T06:20:16;1.40;;;0.40;;
13321;SDS011;6730;46.248;6.930;2022-12-18T06:22:42;1.03;;;0.60;;
13321;SDS011;6730;46.248;6.930;2022-12-18T06:25:08;1.10;;;0.77;;
13321;SDS011;6730;46.248;6.930;2022-12-18T06:27:33;0.77;;;0.70;;
13321;SDS011;6730;46.248;6.930;2022-12-18T06:29:59;1.37;;;0.83;;
13321;SDS011;6730;46.248;6.930;2022-12-18T06:32:25;1.23;;;0.70;;
13321;SDS011;6730;46.248;6.930;2022-12-18T06:34:51;0.73;;;0.73;;
13321;SDS011;6730;46.248;6.930;2022-12-18T06:37:18;1.00;;;0.80;;
13321;SDS011;6730;46.248;6.930;2022-12-18T06:39:43;1.40;;;1.07;;
13321;SDS011;6730;46.248;6.930;2022-12-18T06:42:09;1.00;;;0.70;;
13321;SDS011;6730;46.248;6.930;2022-12-18T06:44:35;0.70;;;0.70;;
13321;SDS011;6730;46.248;6.930;2022-12-18T06:47:00;1.37;;;1.00;;
13321;SDS011;6730;46.248;6.930;2022-12-18T06:49:26;0.60;;;0.50;;
13321;SDS011;6730;46.248;6.930;2022-12-18T06:51:51;0.80;;;0.80;;
13321;SDS011;6730;46.248;6.930;2022-12-18T06:54:17;0.93;;;0.60;;
13321;SDS011;6730;46.248;6.930;2022-12-18T06:56:44;1.13;;;0.80;;
13321;SDS011;6730;46.248;6.930;2022-12-18T06:59:10;0.90;;;0.70;;
13321;SDS011;6730;46.248;6.930;2022-12-18T07:01:38;0.90;;;0.53;;
13321;SDS011;6730;46.248;6.930;2022-12-18T07:04:04;1.10;;;0.80;;
13321;SDS011;6730;46.248;6.930;2022-12-18T07:06:29;0.60;;;0.60;;
13321;SDS011;6730;46.248;6.930;2022-12-18T07:08:55;2.63;;;2.07;;
13321;SDS011;6730;46.248;6.930;2022-12-18T07:11:21;2.10;;;1.20;;
13321;SDS011;6730;46.248;6.930;2022-12-18T07:13:47;4.77;;;2.50;;
13321;SDS011;6730;46.248;6.930;2022-12-18T07:16:16;2.13;;;1.57;;
13321;SDS011;6730;46.248;6.930;2022-12-18T07:18:43;2.27;;;1.43;;
13321;SDS011;6730;46.248;6.930;2022-12-18T07:21:11;1.23;;;1.10;;
13321;SDS011;6730;46.248;6.930;2022-12-18T07:23:41;1.23;;;1.03;;
13321;SDS011;6730;46.248;6.930;2022-12-18T07:26:08;1.30;;;1.00;;
13321;SDS011;6730;46.248;6.930;2022-12-18T07:28:35;1.27;;;0.80;;
13321;SDS011;6730;46.248;6.930;2022-12-18T07:31:06;1.10;;;0.90;;
13321;SDS011;6730;46.248;6.930;2022-12-18T07:33:33;0.80;;;0.63;;
13321;SDS011;6730;46.248;6.930;2022-12-18T07:36:02;1.23;;;0.80;;
13321;SDS011;6730;46.248;6.930;2022-12-18T07:38:29;1.03;;;0.90;;
13321;SDS011;6730;46.248;6.930;2022-12-18T07:41:00;2.13;;;1.40;;
13321;SDS011;6730;46.248;6.930;2022-12-18T07:43:26;1.23;;;0.83;;
13321;SDS011;6730;46.248;6.930;2022-12-18T07:45:52;0.77;;;0.77;;
13321;SDS011;6730;46.248;6.930;2022-12-18T07:48:17;0.93;;;0.87;;
13321;SDS011;6730;46.248;6.930;2022-12-18T07:50:43;1.17;;;0.73;;
13321;SDS011;6730;46.248;6.930;2022-12-18T07:53:09;1.57;;;0.83;;
13321;SDS011;6730;46.248;6.930;2022-12-18T07:55:34;0.60;;;0.50;;
13321;SDS011;6730;46.248;6.930;2022-12-18T07:58:01;1.00;;;0.70;;
13321;SDS011;6730;46.248;6.930;2022-12-18T08:00:27;1.17;;;0.90;;
13321;SDS011;6730;46.248;6.930;2022-12-18T08:02:53;1.00;;;0.80;;
13321;SDS011;6730;46.248;6.930;2022-12-18T08:05:19;1.03;;;0.63;;
13321;SDS011;6730;46.248;6.930;2022-12-18T08:07:45;1.63;;;1.00;;
13321;SDS011;6730;46.248;6.930;2022-12-18T08:10:11;0.73;;;0.73;;
13321;SDS011;6730;46.248;6.930;2022-12-18T08:12:37;1.10;;;0.83;;
13321;SDS011;6730;46.248;6.930;2022-12-18T08:15:04;1.40;;;1.10;;
13321;SDS011;6730;46.248;6.930;2022-12-18T08:17:30;1.10;;;1.00;;
13321;SDS011;6730;46.248;6.930;2022-12-18T08:19:55;1.57;;;1.30;;
13321;SDS011;6730;46.248;6.930;2022-12-18T08:22:21;1.80;;;1.40;;
13321;SDS011;6730;46.248;6.930;2022-12-18T08:24:47;1.70;;;1.40;;
13321;SDS011;6730;46.248;6.930;2022-12-18T08:27:12;1.50;;;1.20;;
13321;SDS011;6730;46.248;6.930;2022-12-18T08:29:38;3.70;;;3.00;;
13321;SDS011;6730;46.248;6.930;2022-12-18T08:32:04;3.00;;;2.37;;
13321;SDS011;6730;46.248;6.930;2022-12-18T08:34:29;4.33;;;2.13;;
13321;SDS011;6730;46.248;6.930;2022-12-18T08:36:55;5.33;;;3.53;;
13321;SDS011;6730;46.248;6.930;2022-12-18T08:39:21;10.00;;;4.70;;
13321;SDS011;6730;46.248;6.930;2022-12-18T08:41:46;6.00;;;3.73;;
13321;SDS011;6730;46.248;6.930;2022-12-18T08:44:32;3.97;;;3.30;;
13321;SDS011;6730;46.248;6.930;2022-12-18T08:47:06;3.40;;;2.03;;
13321;SDS011;6730;46.248;6.930;2022-12-18T08:49:33;7.07;;;4.20;;
13321;SDS011;6730;46.248;6.930;2022-12-18T08:51:59;4.00;;;3.60;;
13321;SDS011;6730;46.248;6.930;2022-12-18T08:54:24;2.70;;;2.00;;
13321;SDS011;6730;46.248;6.930;2022-12-18T08:56:51;4.32;;;3.00;;
13321;SDS011;6730;46.248;6.930;2022-12-18T08:59:17;3.28;;;2.30;;
13321;SDS011;6730;46.248;6.930;2022-12-18T09:01:43;3.83;;;2.20;;
13321;SDS011;6730;46.248;6.930;2022-12-18T09:04:10;2.88;;;2.33;;
13321;SDS011;6730;46.248;6.930;2022-12-18T09:06:36;2.13;;;1.75;;
13321;SDS011;6730;46.248;6.930;2022-12-18T09:09:02;2.08;;;1.55;;
13321;SDS011;6730;46.248;6.930;2022-12-18T09:11:29;2.58;;;2.05;;
13321;SDS011;6730;46.248;6.930;2022-12-18T09:13:56;2.38;;;1.90;;
13321;SDS011;6730;46.248;6.930;2022-12-18T09:16:23;2.03;;;1.73;;
13321;SDS011;6730;46.248;6.930;2022-12-18T09:18:50;1.65;;;1.33;;
13321;SDS011;6730;46.248;6.930;2022-12-18T09:21:17;2.20;;;1.50;;
13321;SDS011;6730;46.248;6.930;2022-12-18T09:23:48;1.77;;;1.42;;
13321;SDS011;6730;46.248;6.930;2022-12-18T09:26:15;2.28;;;1.80;;
13321;SDS011;6730;46.248;6.930;2022-12-18T09:28:41;3.80;;;2.75;;
13321;SDS011;6730;46.248;6.930;2022-12-18T09:31:07;4.47;;;2.80;;
13321;SDS011;6730;46.248;6.930;2022-12-18T09:33:34;5.13;;;3.10;;
13321;SDS011;6730;46.248;6.930;2022-12-18T09:36:01;4.63;;;3.00;;
13321;SDS011;6730;46.248;6.930;2022-12-18T09:38:28;4.17;;;2.80;;
13321;SDS011;6730;46.248;6.930;2022-12-18T09:40:56;4.70;;;3.27;;
13321;SDS011;6730;46.248;6.930;2022-12-18T09:43:36;5.53;;;4.00;;
13321;SDS011;6730;46.248;6.930;2022-12-18T09:46:09;6.83;;;3.23;;
13321;SDS011;6730;46.248;6.930;2022-12-18T09:48:41;2.63;;;1.80;;
13321;SDS011;6730;46.248;6.930;2022-12-18T09:54:00;1.52;;;1.42;;
13321;SDS011;6730;46.248;6.930;2022-12-18T09:56:31;3.97;;;2.77;;
13321;SDS011;6730;46.248;6.930;2022-12-18T09:59:01;2.97;;;2.40;;
13321;SDS011;6730;46.248;6.930;2022-12-18T10:01:29;2.38;;;1.80;;
13321;SDS011;6730;46.248;6.930;2022-12-18T10:03:56;2.10;;;1.60;;
13321;SDS011;6730;46.248;6.930;2022-12-18T10:11:43;2.47;;;2.25;;
13321;SDS011;6730;46.248;6.930;2022-12-18T10:19:47;3.88;;;2.40;;
13321;SDS011;6730;46.248;6.930;2022-12-18T10:24:55;4.87;;;3.27;;
13321;SDS011;6730;46.248;6.930;2022-12-18T10:27:43;4.23;;;2.90;;
13321;SDS011;6730;46.248;6.930;2022-12-18T10:30:16;2.50;;;1.90;;
13321;SDS011;6730;46.248;6.930;2022-12-18T10:32:44;3.53;;;2.30;;
13321;SDS011;6730;46.248;6.930;2022-12-18T10:35:21;2.53;;;2.05;;
13321;SDS011;6730;46.248;6.930;2022-12-18T10:37:59;3.33;;;2.75;;
13321;SDS011;6730;46.248;6.930;2022-12-18T10:43:47;1.85;;;1.30;;
13321;SDS011;6730;46.248;6.930;2022-12-18T10:46:16;2.40;;;2.15;;
13321;SDS011;6730;46.248;6.930;2022-12-18T10:53:55;1.83;;;1.67;;
13321;SDS011;6730;46.248;6.930;2022-12-18T10:56:27;3.93;;;2.90;;
13321;SDS011;6730;46.248;6.930;2022-12-18T10:58:58;2.97;;;2.27;;
13321;SDS011;6730;46.248;6.930;2022-12-18T11:01:31;2.40;;;1.63;;
13321;SDS011;6730;46.248;6.930;2022-12-18T11:04:29;2.20;;;1.70;;
13321;SDS011;6730;46.248;6.930;2022-12-18T11:07:00;1.70;;;1.53;;
13321;SDS011;6730;46.248;6.930;2022-12-18T11:09:31;2.83;;;2.13;;
13321;SDS011;6730;46.248;6.930;2022-12-18T11:12:02;4.40;;;2.72;;
13321;SDS011;6730;46.248;6.930;2022-12-18T11:14:32;2.37;;;1.93;;
13321;SDS011;6730;46.248;6.930;2022-12-18T11:17:00;2.63;;;1.90;;
13321;SDS011;6730;46.248;6.930;2022-12-18T11:22:00;2.00;;;1.80;;
13321;SDS011;6730;46.248;6.930;2022-12-18T11:24:34;2.55;;;2.28;;
13321;SDS011;6730;46.248;6.930;2022-12-18T11:27:05;2.72;;;1.73;;
13321;SDS011;6730;46.248;6.930;2022-12-18T11:29:40;2.17;;;1.88;;
13321;SDS011;6730;46.248;6.930;2022-12-18T11:35:08;2.33;;;1.98;;
13321;SDS011;6730;46.248;6.930;2022-12-18T11:37:46;2.30;;;1.80;;
13321;SDS011;6730;46.248;6.930;2022-12-18T11:40:19;4.07;;;2.35;;
13321;SDS011;6730;46.248;6.930;2022-12-18T11:43:12;2.63;;;1.93;;
13321;SDS011;6730;46.248;6.930;2022-12-18T11:45:58;3.30;;;2.43;;
13321;SDS011;6730;46.248;6.930;2022-12-18T11:48:30;3.23;;;2.40;;
13321;SDS011;6730;46.248;6.930;2022-12-18T11:50:59;2.00;;;1.80;;
13321;SDS011;6730;46.248;6.930;2022-12-18T11:53:28;3.67;;;2.60;;
13321;SDS011;6730;46.248;6.930;2022-12-18T12:03:57;3.43;;;2.60;;
13321;SDS011;6730;46.248;6.930;2022-12-18T12:09:34;3.27;;;2.73;;
13321;SDS011;6730;46.248;6.930;2022-12-18T12:15:04;2.55;;;1.98;;
13321;SDS011;6730;46.248;6.930;2022-12-18T12:18:00;2.60;;;1.50;;
13321;SDS011;6730;46.248;6.930;2022-12-18T12:20:49;2.67;;;1.77;;
13321;SDS011;6730;46.248;6.930;2022-12-18T12:23:41;2.70;;;2.03;;
13321;SDS011;6730;46.248;6.930;2022-12-18T12:29:07;2.00;;;1.50;;
13321;SDS011;6730;46.248;6.930;2022-12-18T12:40:13;4.73;;;2.73;;
13321;SDS011;6730;46.248;6.930;2022-12-18T12:42:46;2.90;;;2.20;;
13321;SDS011;6730;46.248;6.930;2022-12-18T12:45:47;3.30;;;2.20;;
13321;SDS011;6730;46.248;6.930;2022-12-18T12:51:15;3.03;;;2.37;;
13321;SDS011;6730;46.248;6.930;2022-12-18T12:53:53;2.37;;;2.17;;
13321;SDS011;6730;46.248;6.930;2022-12-18T12:56:21;4.37;;;2.77;;
13321;SDS011;6730;46.248;6.930;2022-12-18T12:58:52;5.90;;;2.70;;
13321;SDS011;6730;46.248;6.930;2022-12-18T13:01:26;3.08;;;2.42;;
13321;SDS011;6730;46.248;6.930;2022-12-18T13:04:02;3.97;;;2.72;;
13321;SDS011;6730;46.248;6.930;2022-12-18T13:06:37;3.77;;;2.70;;
13321;SDS011;6730;46.248;6.930;2022-12-18T13:09:08;2.77;;;2.57;;
13321;SDS011;6730;46.248;6.930;2022-12-18T13:11:35;3.70;;;2.53;;
13321;SDS011;6730;46.248;6.930;2022-12-18T13:14:28;7.90;;;2.83;;
13321;SDS011;6730;46.248;6.930;2022-12-18T13:19:40;3.70;;;2.60;;
13321;SDS011;6730;46.248;6.930;2022-12-18T13:22:19;3.07;;;2.33;;
13321;SDS011;6730;46.248;6.930;2022-12-18T13:24:50;2.70;;;2.20;;
13321;SDS011;6730;46.248;6.930;2022-12-18T13:40:58;3.40;;;2.43;;
13321;SDS011;6730;46.248;6.930;2022-12-18T13:43:32;3.73;;;2.40;;
13321;SDS011;6730;46.248;6.930;2022-12-18T13:48:41;2.60;;;2.10;;
13321;SDS011;6730;46.248;6.930;2022-12-18T13:51:34;3.17;;;1.97;;
13321;SDS011;6730;46.248;6.930;2022-12-18T13:54:01;2.60;;;2.07;;
13321;SDS011;6730;46.248;6.930;2022-12-18T13:56:42;3.33;;;2.10;;
13321;SDS011;6730;46.248;6.930;2022-12-18T13:59:13;3.77;;;2.20;;
13321;SDS011;6730;46.248;6.930;2022-12-18T14:01:48;3.73;;;2.47;;
13321;SDS011;6730;46.248;6.930;2022-12-18T14:04:26;3.27;;;2.50;;
13321;SDS011;6730;46.248;6.930;2022-12-18T14:09:35;3.43;;;2.37;;
13321;SDS011;6730;46.248;6.930;2022-12-18T14:12:05;4.53;;;2.43;;
13321;SDS011;6730;46.248;6.930;2022-12-18T14:14:51;3.30;;;2.50;;
13321;SDS011;6730;46.248;6.930;2022-12-18T14:17:17;3.50;;;2.40;;
13321;SDS011;6730;46.248;6.930;2022-12-18T14:19:44;2.73;;;2.43;;
13321;SDS011;6730;46.248;6.930;2022-12-18T14:22:16;3.77;;;2.20;;
13321;SDS011;6730;46.248;6.930;2022-12-18T14:24:43;3.00;;;2.30;;
13321;SDS011;6730;46.248;6.930;2022-12-18T14:27:26;4.17;;;2.60;;
13321;SDS011;6730;46.248;6.930;2022-12-18T14:29:52;4.73;;;2.63;;
13321;SDS011;6730;46.248;6.930;2022-12-18T14:32:18;2.93;;;2.10;;
13321;SDS011;6730;46.248;6.930;2022-12-18T14:34:49;13.70;;;8.60;;
13321;SDS011;6730;46.248;6.930;2022-12-18T14:37:18;5.97;;;4.17;;
13321;SDS011;6730;46.248;6.930;2022-12-18T14:39:53;12.47;;;5.70;;
13321;SDS011;6730;46.248;6.930;2022-12-18T14:42:21;8.80;;;5.07;;
13321;SDS011;6730;46.248;6.930;2022-12-18T14:44:47;8.23;;;5.03;;
13321;SDS011;6730;46.248;6.930;2022-12-18T14:47:14;5.07;;;3.07;;
13321;SDS011;6730;46.248;6.930;2022-12-18T14:49:40;4.73;;;2.90;;
13321;SDS011;6730;46.248;6.930;2022-12-18T14:52:23;4.87;;;3.00;;
13321;SDS011;6730;46.248;6.930;2022-12-18T14:54:53;5.27;;;3.00;;
13321;SDS011;6730;46.248;6.930;2022-12-18T14:57:23;4.27;;;3.00;;
13321;SDS011;6730;46.248;6.930;2022-12-18T14:59:51;4.50;;;2.40;;
13321;SDS011;6730;46.248;6.930;2022-12-18T15:02:24;2.33;;;1.80;;
13321;SDS011;6730;46.248;6.930;2022-12-18T15:05:01;3.00;;;2.27;;
13321;SDS011;6730;46.248;6.930;2022-12-18T15:07:40;4.10;;;2.67;;
13321;SDS011;6730;46.248;6.930;2022-12-18T15:10:11;2.33;;;2.13;;
13321;SDS011;6730;46.248;6.930;2022-12-18T15:12:40;3.93;;;2.20;;
13321;SDS011;6730;46.248;6.930;2022-12-18T15:18:03;3.07;;;1.90;;
13321;SDS011;6730;46.248;6.930;2022-12-18T15:20:33;2.93;;;2.33;;
13321;SDS011;6730;46.248;6.930;2022-12-18T15:23:14;3.53;;;2.10;;
13321;SDS011;6730;46.248;6.930;2022-12-18T15:28:36;2.63;;;2.00;;
13321;SDS011;6730;46.248;6.930;2022-12-18T15:33:40;1.87;;;1.50;;
13321;SDS011;6730;46.248;6.930;2022-12-18T15:36:12;2.30;;;1.77;;
13321;SDS011;6730;46.248;6.930;2022-12-18T15:38:41;7.80;;;4.07;;
13321;SDS011;6730;46.248;6.930;2022-12-18T15:41:13;5.47;;;2.97;;
13321;SDS011;6730;46.248;6.930;2022-12-18T15:43:41;3.57;;;2.83;;
13321;SDS011;6730;46.248;6.930;2022-12-18T15:46:09;3.57;;;2.70;;
13321;SDS011;6730;46.248;6.930;2022-12-18T15:53:58;4.37;;;2.70;;
13321;SDS011;6730;46.248;6.930;2022-12-18T15:56:25;3.00;;;2.53;;
13321;SDS011;6730;46.248;6.930;2022-12-18T15:59:11;3.70;;;2.57;;
13321;SDS011;6730;46.248;6.930;2022-12-18T16:01:39;6.83;;;4.70;;
13321;SDS011;6730;46.248;6.930;2022-12-18T16:04:05;23.20;;;17.83;;
13321;SDS011;6730;46.248;6.930;2022-12-18T16:06:31;6.87;;;4.43;;
13321;SDS011;6730;46.248;6.930;2022-12-18T16:08:56;5.47;;;4.10;;
13321;SDS011;6730;46.248;6.930;2022-12-18T16:11:26;7.10;;;5.30;;
13321;SDS011;6730;46.248;6.930;2022-12-18T16:16:40;7.20;;;5.07;;
13321;SDS011;6730;46.248;6.930;2022-12-18T16:19:06;6.53;;;4.63;;
13321;SDS011;6730;46.248;6.930;2022-12-18T16:21:32;7.47;;;4.50;;
13321;SDS011;6730;46.248;6.930;2022-12-18T16:23:58;6.23;;;4.87;;
13321;SDS011;6730;46.248;6.930;2022-12-18T16:26:23;6.73;;;4.93;;
13321;SDS011;6730;46.248;6.930;2022-12-18T16:28:49;5.53;;;4.73;;
13321;SDS011;6730;46.248;6.930;2022-12-18T16:31:15;7.23;;;4.37;;
13321;SDS011;6730;46.248;6.930;2022-12-18T16:33:40;6.73;;;4.47;;
13321;SDS011;6730;46.248;6.930;2022-12-18T16:36:06;7.13;;;4.97;;
13321;SDS011;6730;46.248;6.930;2022-12-18T16:38:32;6.93;;;4.77;;
13321;SDS011;6730;46.248;6.930;2022-12-18T16:40:58;7.13;;;5.50;;
13321;SDS011;6730;46.248;6.930;2022-12-18T16:43:42;5.67;;;4.20;;
13321;SDS011;6730;46.248;6.930;2022-12-18T16:46:08;5.53;;;4.03;;
13321;SDS011;6730;46.248;6.930;2022-12-18T16:48:34;7.43;;;5.40;;
13321;SDS011;6730;46.248;6.930;2022-12-18T16:51:00;8.57;;;4.40;;
13321;SDS011;6730;46.248;6.930;2022-12-18T16:53:27;6.67;;;4.27;;
13321;SDS011;6730;46.248;6.930;2022-12-18T16:55:54;7.20;;;4.53;;
13321;SDS011;6730;46.248;6.930;2022-12-18T16:58:20;5.67;;;3.93;;
13321;SDS011;6730;46.248;6.930;2022-12-18T17:00:46;5.90;;;4.00;;
13321;SDS011;6730;46.248;6.930;2022-12-18T17:03:11;6.40;;;4.20;;
13321;SDS011;6730;46.248;6.930;2022-12-18T17:05:37;6.33;;;5.03;;
13321;SDS011;6730;46.248;6.930;2022-12-18T17:08:03;6.43;;;4.30;;
13321;SDS011;6730;46.248;6.930;2022-12-18T17:10:29;7.13;;;5.50;;
13321;SDS011;6730;46.248;6.930;2022-12-18T17:12:55;8.47;;;5.43;;
13321;SDS011;6730;46.248;6.930;2022-12-18T17:15:20;8.53;;;5.83;;
13321;SDS011;6730;46.248;6.930;2022-12-18T17:17:46;7.67;;;5.10;;
13321;SDS011;6730;46.248;6.930;2022-12-18T17:20:12;9.07;;;6.73;;